Gloversville, New York
Current Conditions -  °F | °C
As of 3:35 PM on Thursday 20 Nov 2014 (Local Time) from KNY0 Reporting Station
Overcast Overcast  
Wind Chill: 16°   Ceiling: 2800
Heat Index: 26°   Visibility: 10mi
Dew Point: 17°   Wind: 12mph
Humidity: 69%   Direction: 320°NW
Pressure: 29.82"   Gusts: 17mph
Location:  43.06°N, 74.34°W
Report Text: KNY0 202035Z AUTO 32010G15KT 10SM SCT023 BKN028 OVC035 M03/M08 A2982 RMK AO2 T10311081
Loading
Personal Weather Stations






























Interactive Weather Map New forecast layout! Learn more

10-Day Weather Forecast

Advertisements
Track Severe Weather on mobile